Time;durP1;ratioP1;P1;durP2;ratioP2;P2;SDS_P1;SDS_P2;PMS_P1;PMS_P2;Temp;Humidity;BMP_temperature;BMP_pressure;BME280_temperature;BME280_humidity;BME280_pressure;Samples;Min_cycle;Max_cycle;Signal;HPM_P1;HPM_P2
2023/08/28 00:00:01;;;;;;;;;;;;;;;28.39;47.16;100995.12;106799;1268;25465;-50
2023/08/28 00:02:28;;;;;;;;;;;;;;;28.37;47.10;100998.13;106601;1257;25448;-50
2023/08/28 00:04:55;;;;;;;;;;;;;;;28.35;47.00;100996.21;106785;1259;22637;-51
2023/08/28 00:07:21;;;;;;;;;;;;;;;28.33;47.03;100998.02;106776;1273;22564;-50
2023/08/28 00:09:48;;;;;;;;;;;;;;;28.30;46.99;100990.98;106796;1270;25344;-49
2023/08/28 00:12:15;;;;;;;;;;;;;;;28.28;46.94;100991.71;106852;1269;25457;-54
2023/08/28 00:14:42;;;;;;;;;;;;;;;28.25;46.94;100982.92;106838;1259;25305;-50
2023/08/28 00:17:09;;;;;;;;;;;;;;;28.21;46.95;100983.46;106790;1270;25327;-49
2023/08/28 00:19:36;;;;;;;;;;;;;;;28.18;46.94;100984.95;106814;1262;25424;-51
2023/08/28 00:22:03;;;;;;;;;;;;;;;28.16;46.93;100985.88;106743;1260;25500;-50
2023/08/28 00:24:30;;;;;;;;;;;;;;;28.13;46.93;100991.88;106770;1269;25322;-50
2023/08/28 00:26:57;;;;;;;;;;;;;;;28.10;47.03;100997.83;106710;1259;22625;-51
2023/08/28 00:29:23;;;;;;;;;;;;;;;28.06;47.01;100999.61;106825;1266;23121;-56
2023/08/28 00:31:50;;;;;;;;;;;;;;;28.02;46.99;101004.56;106570;1272;25488;-49
2023/08/28 00:34:18;;;;;;;;;;;;;;;27.98;47.26;101004.30;106566;1265;379328;-50
2023/08/28 00:36:45;;;;;;;;;;;;;;;27.92;47.52;101003.56;106792;1259;24372;-49
2023/08/28 00:39:12;;;;;;;;;;;;;;;27.87;48.04;101004.05;106748;1267;25316;-50
2023/08/28 00:41:39;;;;;;;;;;;;;;;27.83;48.61;101001.73;106762;1257;25333;-50
2023/08/28 00:44:06;;;;;;;;;;;;;;;27.79;48.71;101000.44;106751;1269;24351;-50
2023/08/28 00:46:33;;;;;;;;;;;;;;;27.75;48.38;100996.20;106792;1260;25344;-56
2023/08/28 00:49:01;;;;;;;;;;;;;;;27.80;47.69;100999.70;106678;1269;25466;-53
2023/08/28 00:51:28;;;;;;;;;;;;;;;27.82;47.44;100994.98;106494;1269;25314;-54
2023/08/28 00:53:55;;;;;;;;;;;;;;;27.85;46.91;101004.75;106479;1262;23848;-50
2023/08/28 00:56:22;;;;;;;;;;;;;;;27.88;46.72;101001.80;106683;1259;25415;-51
2023/08/28 00:58:49;;;;;;;;;;;;;;;27.89;47.01;101005.77;106655;1271;25433;-54
2023/08/28 01:01:16;;;;;;;;;;;;;;;27.90;47.40;101008.40;106857;1260;24330;-50
2023/08/28 01:03:43;;;;;;;;;;;;;;;27.88;47.56;101006.79;106820;1262;25344;-49
2023/08/28 01:06:31;;;;;;;;;;;;;;;27.88;47.58;101001.77;106785;1275;24330;-50
2023/08/28 01:09:06;;;;;;;;;;;;;;;27.87;47.63;101002.90;106834;1272;25395;-50
2023/08/28 01:11:45;;;;;;;;;;;;;;;27.86;47.54;101001.30;106788;1266;22510;-49
2023/08/28 01:14:15;;;;;;;;;;;;;;;27.83;47.78;101000.08;106659;1263;24182;-49
2023/08/28 01:16:43;;;;;;;;;;;;;;;27.81;47.84;100998.27;106747;1264;25393;-50
2023/08/28 01:19:14;;;;;;;;;;;;;;;27.80;47.86;100995.73;106825;1259;25337;-50
2023/08/28 01:21:41;;;;;;;;;;;;;;;27.77;47.63;100996.77;106821;1262;25501;-50
2023/08/28 01:24:08;;;;;;;;;;;;;;;27.74;47.71;100996.09;106900;1259;25369;-53
2023/08/28 01:26:36;;;;;;;;;;;;;;;27.72;47.91;100995.55;106660;1262;25343;-49
2023/08/28 01:29:03;;;;;;;;;;;;;;;27.71;48.12;100993.34;106814;1269;24221;-50
2023/08/28 01:31:29;;;;;;;;;;;;;;;27.69;48.32;100998.89;106790;1268;25538;-49
2023/08/28 01:33:57;;;;;;;;;;;;;;;27.66;48.27;100992.54;106833;1275;25466;-49
2023/08/28 01:36:33;;;;;;;;;;;;;;;27.65;48.57;100990.91;106662;1272;25320;-49
2023/08/28 01:39:05;;;;;;;;;;;;;;;27.66;48.42;100987.73;106848;1267;25438;-50
2023/08/28 01:41:32;;;;;;;;;;;;;;;27.69;48.20;100989.26;106788;1269;25469;-49
2023/08/28 01:43:59;;;;;;;;;;;;;;;27.69;47.99;100984.06;106476;1272;25465;-50
2023/08/28 01:46:27;;;;;;;;;;;;;;;27.70;47.79;100983.48;106753;1271;25293;-50
2023/08/28 01:48:54;;;;;;;;;;;;;;;27.69;47.65;100987.12;106780;1273;25393;-50
2023/08/28 01:51:23;;;;;;;;;;;;;;;27.68;47.58;100991.09;106745;1269;25318;-49
2023/08/28 01:53:50;;;;;;;;;;;;;;;27.67;47.55;100994.73;106899;1266;23266;-52
2023/08/28 01:56:20;;;;;;;;;;;;;;;27.66;47.52;100992.88;106738;1269;22632;-52
2023/08/28 01:58:54;;;;;;;;;;;;;;;27.66;47.45;100993.46;106775;1262;25390;-51
2023/08/28 02:01:22;;;;;;;;;;;;;;;27.65;47.57;100993.50;106786;1267;25453;-52
2023/08/28 02:03:49;;;;;;;;;;;;;;;27.64;47.65;100994.88;106460;1278;24213;-56
2023/08/28 02:06:16;;;;;;;;;;;;;;;27.63;47.75;101001.93;106769;1269;25439;-49
2023/08/28 02:08:44;;;;;;;;;;;;;;;27.61;47.73;101002.24;106859;1269;23838;-50
2023/08/28 02:11:11;;;;;;;;;;;;;;;27.59;47.88;101003.69;106754;1264;25466;-50
2023/08/28 02:13:38;;;;;;;;;;;;;;;27.55;48.09;101002.80;106751;1268;25347;-50
2023/08/28 02:16:05;;;;;;;;;;;;;;;27.55;48.12;100997.83;106791;1260;25465;-50
2023/08/28 02:18:32;;;;;;;;;;;;;;;27.53;48.16;100997.67;106809;1263;23437;-51
2023/08/28 02:20:59;;;;;;;;;;;;;;;27.49;48.22;100993.70;106842;1259;25312;-51
2023/08/28 02:23:26;;;;;;;;;;;;;;;27.46;47.99;100996.11;106763;1260;25421;-50
2023/08/28 02:25:53;;;;;;;;;;;;;;;27.44;48.01;100995.99;106735;1275;24208;-56
2023/08/28 02:28:20;;;;;;;;;;;;;;;27.40;47.93;100993.08;106810;1261;25349;-49
2023/08/28 02:30:47;;;;;;;;;;;;;;;27.37;47.80;100993.89;106735;1269;25306;-50
2023/08/28 02:33:14;;;;;;;;;;;;;;;27.34;47.79;100995.34;106812;1272;25466;-55
2023/08/28 02:35:42;;;;;;;;;;;;;;;27.32;47.89;100999.12;106769;1269;24285;-51
2023/08/28 02:38:10;;;;;;;;;;;;;;;27.29;47.89;101000.27;106927;1257;25315;-51
2023/08/28 02:40:37;;;;;;;;;;;;;;;27.27;47.91;101002.56;106807;1259;25211;-50
2023/08/28 02:43:09;;;;;;;;;;;;;;;27.26;47.84;101001.61;106844;1260;25316;-50
2023/08/28 02:45:36;;;;;;;;;;;;;;;27.26;47.59;101001.21;106743;1266;25328;-51
2023/08/28 02:48:03;;;;;;;;;;;;;;;27.27;47.61;101002.05;106761;1269;25323;-51
2023/08/28 02:50:31;;;;;;;;;;;;;;;27.27;47.66;101004.30;106793;1269;25316;-51
2023/08/28 02:52:58;;;;;;;;;;;;;;;27.29;47.69;101001.13;106741;1270;25367;-53
2023/08/28 02:55:26;;;;;;;;;;;;;;;27.30;47.66;100999.80;106737;1272;25354;-51
2023/08/28 02:57:52;;;;;;;;;;;;;;;27.31;47.40;100999.55;106703;1268;22520;-50
2023/08/28 03:00:19;;;;;;;;;;;;;;;27.31;47.18;100998.30;106428;1277;25558;-51
2023/08/28 03:02:46;;;;;;;;;;;;;;;27.30;46.88;100998.39;106726;1278;25327;-51
2023/08/28 03:05:13;;;;;;;;;;;;;;;27.30;46.67;100998.56;106850;1272;25776;-51
2023/08/28 03:07:40;;;;;;;;;;;;;;;27.29;46.41;100996.50;106761;1262;25339;-51
2023/08/28 03:10:07;;;;;;;;;;;;;;;27.28;46.33;101002.86;106697;1266;25327;-51
2023/08/28 03:12:34;;;;;;;;;;;;;;;27.26;46.21;101003.86;106798;1273;25354;-50
2023/08/28 03:15:01;;;;;;;;;;;;;;;27.25;46.19;101007.88;106825;1269;25296;-51
2023/08/28 03:17:28;;;;;;;;;;;;;;;27.24;46.13;101010.66;106817;1266;25465;-50
2023/08/28 03:19:55;;;;;;;;;;;;;;;27.22;46.02;101013.89;106853;1262;24224;-51
2023/08/28 03:22:22;;;;;;;;;;;;;;;27.20;46.10;101012.77;106760;1266;25390;-51
2023/08/28 03:24:49;;;;;;;;;;;;;;;27.18;45.92;101012.98;106759;1269;25302;-51
2023/08/28 03:27:16;;;;;;;;;;;;;;;27.17;45.80;101012.70;106786;1270;25293;-50
2023/08/28 03:29:43;;;;;;;;;;;;;;;27.16;45.99;101012.95;106758;1270;25396;-50
2023/08/28 03:32:10;;;;;;;;;;;;;;;27.15;45.88;101016.61;106669;1275;25343;-49
2023/08/28 03:34:37;;;;;;;;;;;;;;;27.14;45.89;101016.89;106670;1272;25306;-50
2023/08/28 03:37:04;;;;;;;;;;;;;;;27.14;45.83;101019.42;106452;1273;25519;-50
2023/08/28 03:39:30;;;;;;;;;;;;;;;27.14;45.83;101024.92;106719;1275;25411;-50
2023/08/28 03:41:57;;;;;;;;;;;;;;;27.13;45.80;101022.31;106866;1271;25344;-50
2023/08/28 03:44:24;;;;;;;;;;;;;;;27.13;45.76;101024.62;106805;1269;25513;-50
2023/08/28 03:46:52;;;;;;;;;;;;;;;27.13;45.64;101024.82;106775;1269;25324;-53
2023/08/28 03:49:20;;;;;;;;;;;;;;;27.12;45.53;101027.20;106695;1265;22513;-53
2023/08/28 03:51:46;;;;;;;;;;;;;;;27.12;45.56;101028.43;106354;1270;25349;-50
2023/08/28 03:54:13;;;;;;;;;;;;;;;27.12;45.64;101030.66;106725;1268;25344;-50
2023/08/28 03:56:41;;;;;;;;;;;;;;;27.11;45.45;101032.63;106822;1267;25322;-55
2023/08/28 03:59:09;;;;;;;;;;;;;;;27.11;45.47;101037.85;106731;1267;25359;-51
2023/08/28 04:01:38;;;;;;;;;;;;;;;27.10;45.52;101039.85;106781;1265;22622;-53
2023/08/28 04:04:05;;;;;;;;;;;;;;;27.10;45.34;101039.37;106791;1263;24406;-51
2023/08/28 04:06:32;;;;;;;;;;;;;;;27.09;45.27;101036.73;106841;1269;25347;-51
2023/08/28 04:08:59;;;;;;;;;;;;;;;27.10;45.41;101033.64;106854;1266;25323;-55
2023/08/28 04:11:26;;;;;;;;;;;;;;;27.11;45.48;101034.11;106752;1269;25463;-51
2023/08/28 04:13:53;;;;;;;;;;;;;;;27.11;45.57;101035.67;106782;1272;26077;-50
2023/08/28 04:16:20;;;;;;;;;;;;;;;27.12;45.87;101037.35;106496;1276;25340;-51
2023/08/28 04:18:47;;;;;;;;;;;;;;;27.13;46.07;101034.80;106676;1278;25468;-51
2023/08/28 04:21:14;;;;;;;;;;;;;;;27.13;46.18;101034.94;106959;1270;25330;-53
2023/08/28 04:23:41;;;;;;;;;;;;;;;27.14;46.21;101032.59;106898;1269;24179;-50
2023/08/28 04:26:08;;;;;;;;;;;;;;;27.15;46.12;101028.57;106827;1270;25373;-49
2023/08/28 04:28:35;;;;;;;;;;;;;;;27.16;46.19;101026.34;106763;1276;25334;-49
2023/08/28 04:31:03;;;;;;;;;;;;;;;27.16;46.03;101021.85;106862;1272;25491;-54
2023/08/28 04:33:30;;;;;;;;;;;;;;;27.18;45.88;101023.13;106798;1268;25862;-49
2023/08/28 04:35:57;;;;;;;;;;;;;;;27.19;45.80;101026.45;106803;1263;25301;-49
2023/08/28 04:38:28;;;;;;;;;;;;;;;27.21;45.69;101026.21;106867;1269;25379;-50
2023/08/28 04:40:55;;;;;;;;;;;;;;;27.23;45.71;101030.02;106771;1271;25424;-50
2023/08/28 04:43:22;;;;;;;;;;;;;;;27.25;45.66;101031.60;106814;1267;25341;-49
2023/08/28 04:45:49;;;;;;;;;;;;;;;27.27;45.49;101030.52;106771;1270;25494;-49
2023/08/28 04:48:17;;;;;;;;;;;;;;;27.29;45.33;101028.56;106762;1269;25446;-50
2023/08/28 04:50:44;;;;;;;;;;;;;;;27.32;45.39;101023.87;106869;1270;25380;-56
2023/08/28 04:53:11;;;;;;;;;;;;;;;27.34;45.52;101025.44;106827;1271;25388;-49
2023/08/28 04:55:41;;;;;;;;;;;;;;;27.37;45.42;101026.48;106822;1271;25306;-50
2023/08/28 04:58:08;;;;;;;;;;;;;;;27.39;45.35;101027.15;106784;1267;25327;-50
2023/08/28 05:00:35;;;;;;;;;;;;;;;27.43;45.62;101023.67;106728;1276;25465;-50
2023/08/28 05:03:03;;;;;;;;;;;;;;;27.47;45.60;101021.02;106713;1273;22528;-50
2023/08/28 05:05:30;;;;;;;;;;;;;;;27.51;45.53;101023.81;106794;1264;22547;-49
2023/08/28 05:07:58;;;;;;;;;;;;;;;27.57;45.37;101021.17;106874;1269;25255;-49
2023/08/28 05:10:25;;;;;;;;;;;;;;;27.62;45.17;101020.71;106859;1268;25500;-49
2023/08/28 05:12:51;;;;;;;;;;;;;;;27.68;45.39;101019.62;106657;1273;25308;-49
2023/08/28 05:15:18;;;;;;;;;;;;;;;27.74;45.46;101016.80;106581;1271;24192;-49
2023/08/28 05:17:47;;;;;;;;;;;;;;;27.79;45.16;101015.05;106794;1257;22952;-49
2023/08/28 05:20:15;;;;;;;;;;;;;;;27.84;44.76;101019.78;106419;1273;24024;-51
2023/08/28 05:22:42;;;;;;;;;;;;;;;27.89;44.43;101020.73;106803;1262;25318;-49
2023/08/28 05:25:09;;;;;;;;;;;;;;;27.94;44.20;101021.06;106580;1273;25327;-49
2023/08/28 05:27:35;;;;;;;;;;;;;;;27.98;44.09;101020.30;106375;1263;25290;-49
2023/08/28 05:30:03;;;;;;;;;;;;;;;28.04;44.03;101020.16;106650;1264;25319;-50
2023/08/28 05:32:30;;;;;;;;;;;;;;;28.08;43.67;101023.48;106556;1262;25449;-50
2023/08/28 05:34:58;;;;;;;;;;;;;;;28.13;43.27;101022.55;106513;1272;25369;-49
2023/08/28 05:37:25;;;;;;;;;;;;;;;28.17;43.36;101023.73;106484;1276;25431;-50
2023/08/28 05:39:53;;;;;;;;;;;;;;;28.22;43.14;101018.33;106720;1263;25344;-50
2023/08/28 05:42:20;;;;;;;;;;;;;;;28.26;43.28;101018.80;106431;1274;25896;-50
2023/08/28 05:44:47;;;;;;;;;;;;;;;28.31;43.65;101017.85;106738;1270;25315;-49
2023/08/28 05:47:14;;;;;;;;;;;;;;;28.36;43.89;101018.76;106884;1261;24227;-55
2023/08/28 05:49:41;;;;;;;;;;;;;;;28.43;43.75;101016.73;106819;1270;25306;-50
2023/08/28 05:52:09;;;;;;;;;;;;;;;28.48;43.69;101019.20;106777;1257;24192;-55
2023/08/28 05:54:36;;;;;;;;;;;;;;;28.55;43.45;101018.59;106876;1260;25343;-49
2023/08/28 05:57:03;;;;;;;;;;;;;;;28.62;43.01;101016.02;106768;1266;25340;-49
2023/08/28 05:59:30;;;;;;;;;;;;;;;28.68;42.35;101015.39;106841;1270;25318;-49
2023/08/28 06:01:57;;;;;;;;;;;;;;;28.76;41.27;101016.98;106803;1267;25324;-50
2023/08/28 06:04:24;;;;;;;;;;;;;;;28.87;40.74;101023.08;106858;1264;25326;-50
2023/08/28 06:06:51;;;;;;;;;;;;;;;28.98;40.02;101023.80;106786;1272;25316;-50
2023/08/28 06:09:18;;;;;;;;;;;;;;;29.11;39.51;101026.02;106826;1261;24021;-49
2023/08/28 06:11:45;;;;;;;;;;;;;;;29.24;39.28;101020.54;106789;1261;25344;-51
2023/08/28 06:14:12;;;;;;;;;;;;;;;29.36;39.42;101021.06;106762;1270;23294;-50
2023/08/28 06:16:40;;;;;;;;;;;;;;;29.49;39.45;101021.81;106829;1270;24173;-49
2023/08/28 06:19:07;;;;;;;;;;;;;;;29.63;39.57;101022.00;106781;1278;25382;-49
2023/08/28 06:21:34;;;;;;;;;;;;;;;29.80;39.93;101021.63;106727;1261;25492;-49
2023/08/28 06:24:01;;;;;;;;;;;;;;;30.03;39.70;101016.16;106758;1271;25321;-51
2023/08/28 06:26:28;;;;;;;;;;;;;;;30.27;38.85;101015.52;106844;1270;25422;-51
2023/08/28 06:28:54;;;;;;;;;;;;;;;30.45;38.47;101008.61;106748;1260;24203;-49
2023/08/28 06:31:21;;;;;;;;;;;;;;;30.58;37.89;101009.13;106854;1264;25327;-50
2023/08/28 06:33:48;;;;;;;;;;;;;;;30.68;37.99;101008.48;106805;1270;25558;-49
2023/08/28 06:36:15;;;;;;;;;;;;;;;30.77;37.86;101006.29;106902;1269;25353;-50
2023/08/28 06:38:42;;;;;;;;;;;;;;;30.87;37.77;101000.84;106804;1260;24303;-49
2023/08/28 06:41:09;;;;;;;;;;;;;;;30.99;37.75;101005.43;106807;1258;25324;-50
2023/08/28 06:43:36;;;;;;;;;;;;;;;31.11;37.73;101003.42;106778;1267;24223;-49
2023/08/28 06:46:03;;;;;;;;;;;;;;;31.20;37.49;101000.55;106755;1260;24362;-50
2023/08/28 06:48:30;;;;;;;;;;;;;;;31.25;37.62;101000.58;106766;1270;25350;-51
2023/08/28 06:50:57;;;;;;;;;;;;;;;31.29;37.66;100997.37;106802;1260;25468;-49
2023/08/28 06:53:25;;;;;;;;;;;;;;;31.32;37.47;100998.52;106760;1254;25332;-50
2023/08/28 06:55:52;;;;;;;;;;;;;;;31.32;37.79;100997.31;106849;1269;25386;-54
2023/08/28 06:58:19;;;;;;;;;;;;;;;31.31;37.75;100995.73;106675;1264;25353;-50
2023/08/28 07:00:46;;;;;;;;;;;;;;;31.30;37.88;100990.11;106819;1270;25315;-50
2023/08/28 07:03:13;;;;;;;;;;;;;;;31.31;38.45;100991.16;106774;1270;24182;-55
2023/08/28 07:05:40;;;;;;;;;;;;;;;31.30;38.00;100988.30;106800;1266;25329;-50
2023/08/28 07:08:07;;;;;;;;;;;;;;;31.34;38.22;100989.59;106723;1277;25396;-50
2023/08/28 07:10:35;;;;;;;;;;;;;;;31.38;37.71;100990.77;106733;1270;25454;-50
2023/08/28 07:13:01;;;;;;;;;;;;;;;31.46;37.32;100988.88;106807;1264;25385;-56
2023/08/28 07:15:29;;;;;;;;;;;;;;;31.60;37.01;100992.66;106744;1267;23859;-56
2023/08/28 07:17:56;;;;;;;;;;;;;;;31.83;36.42;100987.55;106840;1260;25396;-50
2023/08/28 07:20:23;;;;;;;;;;;;;;;32.08;35.99;100994.67;106830;1261;25322;-51
2023/08/28 07:22:53;;;;;;;;;;;;;;;32.34;35.19;100993.43;106913;1267;25378;-51
2023/08/28 07:25:22;;;;;;;;;;;;;;;32.64;34.73;100991.34;106648;1270;22729;-54
2023/08/28 07:27:49;;;;;;;;;;;;;;;32.99;34.25;100993.42;106626;1264;25414;-54
2023/08/28 07:30:16;;;;;;;;;;;;;;;33.31;33.65;100997.95;106613;1267;25313;-52
2023/08/28 07:32:44;;;;;;;;;;;;;;;33.57;33.43;101002.16;106365;1270;22506;-53
2023/08/28 07:35:11;;;;;;;;;;;;;;;33.78;32.44;100999.27;106758;1264;25344;-52
2023/08/28 07:37:38;;;;;;;;;;;;;;;33.87;32.20;100993.31;106751;1264;25306;-50
2023/08/28 07:40:07;;;;;;;;;;;;;;;33.87;32.21;100996.38;106806;1260;24008;-55
2023/08/28 07:42:34;;;;;;;;;;;;;;;33.83;32.39;100991.82;106634;1261;25214;-50
2023/08/28 07:45:01;;;;;;;;;;;;;;;33.78;32.02;100990.64;106719;1270;25437;-50
2023/08/28 07:47:28;;;;;;;;;;;;;;;33.73;33.20;100991.07;106788;1260;25327;-49
2023/08/28 07:49:55;;;;;;;;;;;;;;;33.69;35.32;100992.64;106470;1273;25333;-50
2023/08/28 07:52:22;;;;;;;;;;;;;;;33.64;36.46;100993.43;106700;1274;25507;-51
2023/08/28 07:54:49;;;;;;;;;;;;;;;33.61;36.66;100993.11;106842;1264;25374;-50
2023/08/28 07:57:16;;;;;;;;;;;;;;;33.58;36.81;100989.81;106739;1261;23385;-50
2023/08/28 07:59:42;;;;;;;;;;;;;;;33.57;37.19;100989.21;106842;1272;22514;-50
2023/08/28 08:02:09;;;;;;;;;;;;;;;33.56;37.37;100989.52;106892;1261;24386;-56
2023/08/28 08:04:36;;;;;;;;;;;;;;;33.56;37.63;100990.06;106746;1270;25296;-50
2023/08/28 08:07:03;;;;;;;;;;;;;;;33.55;37.70;100985.43;106821;1254;26480;-50
2023/08/28 08:09:31;;;;;;;;;;;;;;;33.55;37.82;100983.73;106798;1258;23855;-51
2023/08/28 08:12:01;;;;;;;;;;;;;;;33.54;37.55;100984.72;106644;1273;25476;-51
2023/08/28 08:14:28;;;;;;;;;;;;;;;33.52;37.00;100981.88;106771;1270;25385;-49
2023/08/28 08:16:55;;;;;;;;;;;;;;;33.51;37.22;100980.63;106787;1275;25386;-49
2023/08/28 08:19:22;;;;;;;;;;;;;;;33.49;38.02;100981.31;106824;1270;25302;-49
2023/08/28 08:21:50;;;;;;;;;;;;;;;33.48;38.45;100981.41;106725;1270;25330;-50
2023/08/28 08:24:17;;;;;;;;;;;;;;;33.48;38.88;100977.86;106678;1278;25468;-55
2023/08/28 08:26:44;;;;;;;;;;;;;;;33.47;39.40;100972.73;106837;1270;25340;-50
2023/08/28 08:29:11;;;;;;;;;;;;;;;33.47;39.74;100968.83;106753;1264;23846;-50
2023/08/28 08:31:38;;;;;;;;;;;;;;;33.47;40.02;100965.92;106506;1270;22558;-49
2023/08/28 08:34:04;;;;;;;;;;;;;;;33.46;40.03;100961.69;106801;1270;25344;-49
2023/08/28 08:36:31;;;;;;;;;;;;;;;33.46;39.47;100959.19;106702;1267;25483;-53
2023/08/28 08:38:58;;;;;;;;;;;;;;;33.45;39.16;100959.42;106769;1267;25326;-49
2023/08/28 08:41:25;;;;;;;;;;;;;;;33.46;39.09;100953.02;106879;1264;25425;-50
2023/08/28 08:43:52;;;;;;;;;;;;;;;33.47;38.87;100953.62;106832;1269;25360;-50
2023/08/28 08:46:19;;;;;;;;;;;;;;;33.49;38.92;100953.46;106814;1256;22514;-49
2023/08/28 08:48:46;;;;;;;;;;;;;;;33.51;39.48;100956.47;106739;1262;25305;-50
2023/08/28 08:51:13;;;;;;;;;;;;;;;33.53;40.22;100954.23;106721;1270;25317;-49
2023/08/28 08:53:44;;;;;;;;;;;;;;;33.56;40.70;100949.46;106841;1267;25316;-50
2023/08/28 08:56:12;;;;;;;;;;;;;;;33.59;40.59;100945.49;106896;1262;22535;-50
2023/08/28 08:58:40;;;;;;;;;;;;;;;33.61;40.65;100945.92;106863;1259;25325;-50
2023/08/28 09:01:07;;;;;;;;;;;;;;;33.64;40.55;100943.46;106772;1263;25465;-50
2023/08/28 09:03:34;;;;;;;;;;;;;;;33.66;40.48;100942.86;106853;1270;22503;-50
2023/08/28 09:06:01;;;;;;;;;;;;;;;33.68;40.41;100942.01;106894;1264;23856;-53
2023/08/28 09:08:28;;;;;;;;;;;;;;;33.69;40.37;100945.67;106786;1261;25331;-50
2023/08/28 09:11:01;;;;;;;;;;;;;;;33.68;40.22;100941.97;106785;1254;23332;-50
2023/08/28 09:13:28;;;;;;;;;;;;;;;33.69;40.52;100936.64;106762;1270;25339;-50
2023/08/28 09:15:55;;;;;;;;;;;;;;;33.70;40.18;100932.02;106736;1257;25324;-50
2023/08/28 09:18:25;;;;;;;;;;;;;;;33.70;39.78;100932.70;106858;1267;24167;-50
2023/08/28 09:21:08;;;;;;;;;;;;;;;33.71;40.19;100935.27;106839;1261;25434;-50
2023/08/28 09:23:40;;;;;;;;;;;;;;;33.72;40.06;100939.98;106837;1264;23315;-50
2023/08/28 09:26:13;;;;;;;;;;;;;;;33.73;40.22;100939.05;106679;1263;25304;-50
2023/08/28 09:28:40;;;;;;;;;;;;;;;33.74;40.35;100943.02;106748;1272;25383;-50
2023/08/28 09:31:07;;;;;;;;;;;;;;;33.75;40.52;100941.45;106817;1269;25353;-53
2023/08/28 09:33:47;;;;;;;;;;;;;;;33.73;40.57;100936.64;106718;1259;25393;-49
2023/08/28 09:36:35;;;;;;;;;;;;;;;33.74;40.60;100935.90;106824;1267;23326;-50
2023/08/28 09:39:06;;;;;;;;;;;;;;;33.74;40.42;100934.92;106859;1262;24173;-50
2023/08/28 09:41:49;;;;;;;;;;;;;;;33.75;40.43;100936.66;106717;1271;25324;-49
2023/08/28 09:44:16;;;;;;;;;;;;;;;33.74;40.25;100933.30;106780;1264;24317;-50
2023/08/28 09:46:44;;;;;;;;;;;;;;;33.74;40.35;100932.02;106796;1267;24227;-50
2023/08/28 09:49:13;;;;;;;;;;;;;;;33.74;40.54;100933.04;106796;1256;25389;-51
2023/08/28 09:51:41;;;;;;;;;;;;;;;33.74;40.46;100931.35;106794;1270;25503;-49
2023/08/28 09:54:09;;;;;;;;;;;;;;;33.75;40.67;100927.76;106660;1260;25344;-49
2023/08/28 09:56:36;;;;;;;;;;;;;;;33.76;41.14;100930.89;106828;1256;22645;-50
2023/08/28 09:59:04;;;;;;;;;;;;;;;33.78;41.50;100928.17;106799;1259;25162;-54
2023/08/28 10:01:33;;;;;;;;;;;;;;;33.79;41.82;100927.50;106747;1270;25396;-51
2023/08/28 10:04:04;;;;;;;;;;;;;;;33.81;41.98;100925.50;106783;1260;25306;-50
2023/08/28 10:06:31;;;;;;;;;;;;;;;33.81;42.28;100926.71;106770;1259;25444;-50
2023/08/28 10:08:58;;;;;;;;;;;;;;;33.82;42.60;100926.77;106807;1263;25431;-49
2023/08/28 10:11:30;;;;;;;;;;;;;;;33.83;42.67;100927.00;106752;1272;25505;-49
2023/08/28 10:13:57;;;;;;;;;;;;;;;33.85;42.50;100924.63;106816;1261;25316;-48
2023/08/28 10:16:24;;;;;;;;;;;;;;;33.86;42.58;100922.69;106792;1260;25398;-50
2023/08/28 10:18:58;;;;;;;;;;;;;;;33.87;42.96;100921.87;106764;1264;24352;-50
2023/08/28 10:21:25;;;;;;;;;;;;;;;33.88;43.34;100918.73;106837;1267;25389;-51
2023/08/28 10:23:52;;;;;;;;;;;;;;;33.88;43.53;100919.27;106788;1257;24247;-51
2023/08/28 10:26:19;;;;;;;;;;;;;;;33.88;43.50;100921.77;106779;1259;25379;-49
2023/08/28 10:28:46;;;;;;;;;;;;;;;33.88;43.56;100925.88;106508;1278;25344;-50
2023/08/28 10:31:13;;;;;;;;;;;;;;;33.88;43.64;100926.59;106801;1266;25315;-50
2023/08/28 10:33:40;;;;;;;;;;;;;;;33.87;43.81;100921.85;106838;1260;23846;-50
2023/08/28 10:36:09;;;;;;;;;;;;;;;33.87;44.04;100920.76;106812;1269;25309;-50
2023/08/28 10:38:42;;;;;;;;;;;;;;;33.88;44.36;100918.65;106675;1262;25326;-49
2023/08/28 10:41:22;;;;;;;;;;;;;;;33.89;44.24;100915.70;106654;1267;25325;-50
2023/08/28 10:43:49;;;;;;;;;;;;;;;33.90;44.24;100913.05;106777;1259;24191;-50
2023/08/28 10:46:16;;;;;;;;;;;;;;;33.91;44.17;100908.09;106696;1276;25316;-51
2023/08/28 10:48:45;;;;;;;;;;;;;;;33.92;44.01;100907.46;106812;1266;25326;-50
2023/08/28 10:51:12;;;;;;;;;;;;;;;33.93;44.11;100907.29;106846;1259;22734;-50
2023/08/28 10:53:39;;;;;;;;;;;;;;;33.94;44.33;100906.77;106752;1262;22515;-49
2023/08/28 10:56:06;;;;;;;;;;;;;;;33.96;44.60;100905.01;106839;1256;25457;-52
2023/08/28 10:58:36;;;;;;;;;;;;;;;33.97;44.92;100903.20;106882;1268;25350;-52
2023/08/28 11:01:13;;;;;;;;;;;;;;;33.99;45.36;100900.09;106491;1277;25306;-49
2023/08/28 11:03:52;;;;;;;;;;;;;;;34.01;45.44;100902.53;106610;1256;24171;-52
2023/08/28 11:06:39;;;;;;;;;;;;;;;34.03;45.70;100899.23;106768;1271;25302;-52
2023/08/28 11:09:25;;;;;;;;;;;;;;;34.06;45.38;100894.08;106832;1270;22510;-52
2023/08/28 11:11:52;;;;;;;;;;;;;;;34.08;45.16;100885.23;106850;1256;25325;-53
2023/08/28 11:14:19;;;;;;;;;;;;;;;34.09;44.65;100881.27;106843;1259;25469;-48
2023/08/28 11:16:46;;;;;;;;;;;;;;;34.08;44.66;100878.86;106746;1260;25353;-50
2023/08/28 11:19:14;;;;;;;;;;;;;;;34.10;44.57;100876.87;106892;1264;22626;-49
2023/08/28 11:21:42;;;;;;;;;;;;;;;34.11;44.58;100876.48;106804;1267;23852;-49
2023/08/28 11:24:24;;;;;;;;;;;;;;;34.13;44.83;100874.66;106465;1264;25386;-50
2023/08/28 11:26:52;;;;;;;;;;;;;;;34.14;45.11;100873.29;106836;1262;25330;-54
2023/08/28 11:29:25;;;;;;;;;;;;;;;34.16;45.40;100872.33;106748;1267;25334;-50
2023/08/28 11:31:52;;;;;;;;;;;;;;;34.17;45.87;100865.33;106636;1269;24191;-50
2023/08/28 11:34:19;;;;;;;;;;;;;;;34.18;45.80;100864.67;106784;1270;25315;-50
2023/08/28 11:36:46;;;;;;;;;;;;;;;34.20;45.47;100863.00;106889;1270;23266;-51
2023/08/28 11:39:22;;;;;;;;;;;;;;;34.22;45.30;100864.44;106809;1259;25317;-50
2023/08/28 11:41:49;;;;;;;;;;;;;;;34.22;45.59;100862.92;106728;1261;25395;-50
2023/08/28 11:44:16;;;;;;;;;;;;;;;34.23;45.68;100865.34;106686;1269;25344;-57
2023/08/28 11:46:43;;;;;;;;;;;;;;;34.24;45.64;100861.20;106726;1270;25368;-50
2023/08/28 11:49:11;;;;;;;;;;;;;;;34.25;45.33;100858.98;106733;1267;25393;-52
2023/08/28 11:51:38;;;;;;;;;;;;;;;34.26;45.23;100853.70;106812;1259;24162;-55
2023/08/28 11:54:05;;;;;;;;;;;;;;;34.26;45.13;100852.88;106759;1260;25396;-50
2023/08/28 11:56:33;;;;;;;;;;;;;;;34.27;44.74;100853.52;106777;1260;25327;-54
2023/08/28 11:58:59;;;;;;;;;;;;;;;34.28;44.56;100853.27;106801;1270;25396;-54
2023/08/28 12:01:27;;;;;;;;;;;;;;;34.28;44.41;100849.23;106778;1267;25331;-51
2023/08/28 12:04:01;;;;;;;;;;;;;;;34.29;44.50;100845.94;106805;1261;22853;-50
2023/08/28 12:06:35;;;;;;;;;;;;;;;34.29;44.62;100841.25;106832;1269;25488;-51
2023/08/28 12:09:04;;;;;;;;;;;;;;;34.29;44.74;100836.50;106797;1262;25316;-49
2023/08/28 12:11:31;;;;;;;;;;;;;;;34.29;44.48;100835.92;106769;1267;24349;-51
2023/08/28 12:13:58;;;;;;;;;;;;;;;34.30;44.48;100833.56;106806;1260;25309;-50
2023/08/28 12:16:25;;;;;;;;;;;;;;;34.30;44.20;100834.57;106862;1256;25360;-52
2023/08/28 12:18:53;;;;;;;;;;;;;;;34.31;44.38;100840.48;106814;1254;22536;-51
2023/08/28 12:21:32;;;;;;;;;;;;;;;34.32;44.54;100834.89;106482;1270;25347;-50
2023/08/28 12:23:58;;;;;;;;;;;;;;;34.33;44.57;100834.41;106721;1265;22525;-50
2023/08/28 12:26:25;;;;;;;;;;;;;;;34.34;44.22;100836.41;106854;1259;25493;-51
2023/08/28 12:28:53;;;;;;;;;;;;;;;34.36;44.46;100832.79;106749;1254;25340;-50